createdAt,value
2018-10-09T00:01:11.984Z,85.45
2018-10-09T00:03:41.410Z,85.58
2018-10-09T00:06:10.749Z,84.69
2018-10-09T00:08:40.048Z,84.70
2018-10-09T00:11:10.745Z,84.91
2018-10-09T00:13:40.909Z,85.51
2018-10-09T00:16:11.005Z,85.56
2018-10-09T00:21:23.038Z,84.96
2018-10-09T00:23:52.290Z,85.98
2018-10-09T00:26:52.076Z,85.11
2018-10-09T00:29:21.033Z,84.39
2018-10-09T00:31:53.277Z,85.00
2018-10-09T00:34:22.937Z,84.63
2018-10-09T00:36:52.622Z,85.15
2018-10-09T00:39:22.385Z,85.29
2018-10-09T00:41:52.055Z,84.87
2018-10-09T00:44:21.184Z,84.89
2018-10-09T00:46:50.188Z,84.49
2018-10-09T00:49:19.859Z,84.47
2018-10-09T00:51:49.200Z,84.68
2018-10-09T00:54:18.880Z,84.77
2018-10-09T00:56:47.988Z,84.33
2018-10-09T00:59:18.419Z,84.47
2018-10-09T01:01:47.913Z,84.68
2018-10-09T01:04:17.738Z,85.08
2018-10-09T01:06:46.771Z,85.30
2018-10-09T01:09:16.149Z,85.26
2018-10-09T01:11:44.992Z,84.91
2018-10-09T01:14:15.272Z,84.79
2018-10-09T01:16:45.236Z,84.83
2018-10-09T01:19:16.201Z,85.12
2018-10-09T01:21:45.413Z,85.21
2018-10-09T01:24:15.325Z,86.07
2018-10-09T01:26:45.011Z,85.93
2018-10-09T01:29:14.432Z,86.32
2018-10-09T01:31:43.447Z,86.40
2018-10-09T01:34:14.450Z,86.92
2018-10-09T01:36:44.157Z,86.61
2018-10-09T01:39:13.397Z,86.40
2018-10-09T01:41:42.966Z,86.46
2018-10-09T01:44:12.146Z,86.78
2018-10-09T01:46:41.520Z,87.01
2018-10-09T01:49:11.376Z,86.67
2018-10-09T01:51:40.611Z,86.47
2018-10-09T01:54:11.704Z,86.28
2018-10-09T01:56:41.930Z,86.86
2018-10-09T01:59:11.800Z,85.76
2018-10-09T02:01:41.635Z,85.56
2018-10-09T02:04:11.489Z,85.77
2018-10-09T02:06:40.748Z,85.77
2018-10-09T02:09:10.786Z,85.48
2018-10-09T02:11:40.624Z,84.85
2018-10-09T02:14:10.562Z,85.72
2018-10-09T02:16:40.305Z,85.05
2018-10-09T02:19:10.024Z,85.43
2018-10-09T02:21:39.113Z,85.33
2018-10-09T02:24:08.457Z,84.63
2018-10-09T02:26:38.121Z,84.96
2018-10-09T02:29:07.982Z,85.43
2018-10-09T02:31:37.395Z,85.23
2018-10-09T02:34:10.807Z,84.64
2018-10-09T02:36:41.038Z,84.94
2018-10-09T02:39:12.260Z,84.50
2018-10-09T02:41:41.409Z,84.57
2018-10-09T02:44:11.661Z,84.53
2018-10-09T02:46:41.696Z,84.82
2018-10-09T02:49:11.404Z,84.44
2018-10-09T02:51:41.577Z,84.97
2018-10-09T02:54:11.462Z,84.30
2018-10-09T02:56:40.771Z,84.27
2018-10-09T02:59:10.848Z,84.23
2018-10-09T03:01:41.115Z,84.71
2018-10-09T03:04:10.359Z,84.59
2018-10-09T03:06:39.756Z,84.63
2018-10-09T03:09:10.804Z,84.20
2018-10-09T03:11:40.247Z,84.26
2018-10-09T03:14:10.102Z,84.14
2018-10-09T03:16:40.097Z,84.29
2018-10-09T03:19:11.573Z,84.54
2018-10-09T03:21:40.942Z,84.54
2018-10-09T03:24:10.375Z,84.40
2018-10-09T03:26:39.652Z,85.00
2018-10-09T03:29:09.065Z,84.57
2018-10-09T03:31:38.380Z,84.63
2018-10-09T03:34:09.002Z,84.27
2018-10-09T03:36:39.699Z,84.98
2018-10-09T03:39:12.070Z,84.73
2018-10-09T03:41:41.374Z,85.25
2018-10-09T03:44:10.672Z,84.93
2018-10-09T03:46:40.467Z,84.76
2018-10-09T03:49:10.521Z,84.83
2018-10-09T03:51:40.145Z,85.21
2018-10-09T03:54:11.732Z,84.82
2018-10-09T03:56:40.827Z,84.82
2018-10-09T03:59:10.576Z,84.78
2018-10-09T04:01:40.774Z,85.51
2018-10-09T04:04:10.548Z,85.19
2018-10-09T04:06:40.583Z,85.00
2018-10-09T04:09:13.147Z,85.62
2018-10-09T04:11:42.921Z,85.31
2018-10-09T04:14:12.800Z,85.35
2018-10-09T04:16:42.561Z,84.91
2018-10-09T04:19:12.441Z,85.09
2018-10-09T04:21:41.752Z,85.45
2018-10-09T04:24:10.714Z,85.12
2018-10-09T04:26:40.010Z,85.30
2018-10-09T04:29:09.484Z,85.17
2018-10-09T04:31:39.225Z,84.87
2018-10-09T04:34:10.325Z,85.02
2018-10-09T04:36:40.077Z,84.29
2018-10-09T04:39:10.503Z,84.24
2018-10-09T04:41:40.941Z,84.90
2018-10-09T04:44:10.108Z,84.49
2018-10-09T04:49:20.661Z,84.14
2018-10-09T04:51:50.190Z,84.29
2018-10-09T04:54:19.634Z,83.65
2018-10-09T04:56:49.208Z,83.37
2018-10-09T04:59:19.045Z,84.03
2018-10-09T05:01:48.827Z,83.19
2018-10-09T05:04:17.942Z,83.98
2018-10-09T05:06:47.141Z,83.36
2018-10-09T05:09:16.171Z,83.52
2018-10-09T05:11:48.365Z,83.54
2018-10-09T05:14:17.525Z,83.79
2018-10-09T05:16:47.913Z,83.97
2018-10-09T05:19:17.579Z,84.20
2018-10-09T05:21:46.668Z,83.63
2018-10-09T05:24:15.804Z,83.59
2018-10-09T05:26:44.832Z,83.97
2018-10-09T05:29:13.893Z,83.96
2018-10-09T05:31:43.107Z,84.29
2018-10-09T05:34:12.794Z,84.29
2018-10-09T05:36:43.848Z,83.53
2018-10-09T05:39:12.909Z,83.78
2018-10-09T05:41:42.036Z,83.31
2018-10-09T05:44:11.198Z,83.05
2018-10-09T05:46:41.301Z,82.91
2018-10-09T05:49:11.248Z,83.20
2018-10-09T05:51:40.477Z,83.02
2018-10-09T05:54:09.996Z,82.92
2018-10-09T05:56:40.579Z,83.25
2018-10-09T05:59:10.440Z,82.96
2018-10-09T06:01:40.558Z,82.61
2018-10-09T06:04:09.588Z,81.94
2018-10-09T06:06:39.787Z,82.24
2018-10-09T06:09:10.291Z,81.25
2018-10-09T06:11:39.742Z,81.49
2018-10-09T06:14:09.412Z,80.79
2018-10-09T06:16:39.407Z,80.91
2018-10-09T06:19:09.362Z,80.33
2018-10-09T06:21:39.122Z,80.20
2018-10-09T06:24:08.534Z,80.45
2018-10-09T06:26:38.500Z,79.89
2018-10-09T06:29:07.894Z,80.67
2018-10-09T06:31:37.411Z,79.91
2018-10-09T06:34:07.461Z,79.73
2018-10-09T06:36:37.699Z,79.94
2018-10-09T06:39:09.254Z,80.50
2018-10-09T06:41:38.816Z,79.72
2018-10-09T06:44:08.506Z,79.29
2018-10-09T06:46:38.344Z,79.00
2018-10-09T06:49:08.265Z,79.79
2018-10-09T06:51:37.421Z,79.14
2018-10-09T06:54:07.457Z,79.36
2018-10-09T06:56:36.428Z,78.73
2018-10-09T06:59:06.343Z,79.51
2018-10-09T07:01:35.986Z,78.83
2018-10-09T07:04:05.392Z,78.69
2018-10-09T07:06:34.474Z,78.43
2018-10-09T07:09:03.675Z,79.04
2018-10-09T07:11:32.648Z,78.55
2018-10-09T07:14:01.823Z,77.72
2018-10-09T07:16:31.327Z,78.38
2018-10-09T07:19:01.552Z,77.99
2018-10-09T07:21:30.490Z,78.12
2018-10-09T07:23:59.451Z,78.03
2018-10-09T07:26:28.351Z,77.72
2018-10-09T07:28:57.594Z,76.89
2018-10-09T07:31:26.595Z,77.55
2018-10-09T07:33:56.513Z,77.39
2018-10-09T07:36:25.553Z,77.53
2018-10-09T07:38:55.216Z,76.27
2018-10-09T07:41:24.821Z,77.31
2018-10-09T07:43:53.792Z,76.66
2018-10-09T07:46:23.759Z,76.02
2018-10-09T07:48:53.548Z,76.95
2018-10-09T07:51:22.494Z,76.29
2018-10-09T07:53:52.472Z,76.36
2018-10-09T07:56:21.411Z,75.65
2018-10-09T07:58:51.083Z,75.42
2018-10-09T08:01:20.787Z,75.67
2018-10-09T08:03:49.703Z,74.77
2018-10-09T08:06:18.755Z,74.75
2018-10-09T08:08:47.743Z,75.57
2018-10-09T08:11:16.635Z,75.38
2018-10-09T08:13:45.713Z,74.68
2018-10-09T08:16:15.264Z,74.49
2018-10-09T08:19:15.454Z,75.19
2018-10-09T08:21:44.383Z,74.30
2018-10-09T08:24:13.399Z,74.74
2018-10-09T08:26:42.439Z,74.33
2018-10-09T08:29:11.838Z,73.86
2018-10-09T08:31:41.059Z,73.48
2018-10-09T08:34:10.719Z,73.20
2018-10-09T08:36:40.524Z,73.31
2018-10-09T08:39:10.145Z,73.38
2018-10-09T08:41:39.618Z,72.28
2018-10-09T08:44:09.620Z,73.32
2018-10-09T08:46:39.358Z,72.99
2018-10-09T08:49:09.083Z,72.69
2018-10-09T08:51:38.537Z,73.18
2018-10-09T08:54:08.573Z,71.76
2018-10-09T08:56:37.497Z,71.74
2018-10-09T08:59:07.581Z,71.71
2018-10-09T09:01:37.327Z,70.83
2018-10-09T09:04:06.470Z,71.09
2018-10-09T09:06:35.420Z,70.81
2018-10-09T09:09:06.012Z,71.00
2018-10-09T09:11:34.911Z,70.74
2018-10-09T09:14:04.444Z,70.22
2018-10-09T09:16:34.785Z,70.39
2018-10-09T09:19:04.319Z,69.65
2018-10-09T09:21:33.366Z,69.73
2018-10-09T09:24:02.867Z,70.18
2018-10-09T09:26:31.835Z,69.56
2018-10-09T09:29:00.598Z,70.29
2018-10-09T09:31:29.790Z,69.66
2018-10-09T09:33:59.555Z,70.05
2018-10-09T09:36:29.020Z,69.97
2018-10-09T09:38:58.365Z,69.47
2018-10-09T09:41:27.281Z,70.02
2018-10-09T09:43:56.098Z,69.18
2018-10-09T09:46:26.018Z,69.13
2018-10-09T09:48:55.512Z,69.06
2018-10-09T09:51:24.306Z,68.52
2018-10-09T09:53:53.777Z,68.55
2018-10-09T09:56:22.600Z,69.11
2018-10-09T09:58:52.085Z,69.42
2018-10-09T10:01:28.340Z,68.99
2018-10-09T10:03:57.245Z,69.45
2018-10-09T10:06:26.195Z,69.89
2018-10-09T10:08:55.186Z,69.58
2018-10-09T10:11:24.281Z,70.06
2018-10-09T10:13:53.353Z,69.06
2018-10-09T10:16:23.196Z,69.40
2018-10-09T10:18:52.751Z,69.77
2018-10-09T10:21:21.756Z,70.19
2018-10-09T10:23:50.579Z,69.31
2018-10-09T10:26:20.460Z,69.28
2018-10-09T10:28:49.443Z,69.28
2018-10-09T10:31:18.471Z,68.61
2018-10-09T10:33:48.914Z,69.15
2018-10-09T10:36:17.932Z,68.91
2018-10-09T10:38:47.425Z,68.97
2018-10-09T10:41:16.264Z,68.67
2018-10-09T10:43:45.138Z,68.85
2018-10-09T10:46:15.076Z,69.04
2018-10-09T10:49:01.860Z,68.19
2018-10-09T10:51:32.242Z,67.76
2018-10-09T10:54:01.929Z,68.32
2018-10-09T10:56:30.792Z,67.44
2018-10-09T10:59:00.376Z,66.90
2018-10-09T11:01:30.125Z,67.70
2018-10-09T11:03:58.903Z,68.08
2018-10-09T11:06:27.911Z,67.63
2018-10-09T11:08:56.814Z,67.84
2018-10-09T11:11:25.644Z,67.68
2018-10-09T11:13:54.596Z,67.53
2018-10-09T11:16:24.152Z,67.86
2018-10-09T11:18:53.664Z,68.14
2018-10-09T11:21:22.642Z,68.15
2018-10-09T11:23:51.468Z,67.66
2018-10-09T11:26:20.490Z,68.34
2018-10-09T11:28:49.404Z,68.02
2018-10-09T11:31:18.950Z,68.37
2018-10-09T11:33:48.460Z,68.16
2018-10-09T11:36:17.454Z,68.07
2018-10-09T11:38:46.756Z,67.66
2018-10-09T11:41:15.677Z,67.72
2018-10-09T11:43:44.635Z,68.00
2018-10-09T11:46:14.344Z,68.49
2018-10-09T11:48:44.615Z,67.86
2018-10-09T11:51:13.527Z,68.02
2018-10-09T11:53:43.628Z,68.57
2018-10-09T11:56:12.512Z,67.93
2018-10-09T11:58:42.514Z,67.83
2018-10-09T12:01:12.151Z,67.88
2018-10-09T12:03:41.497Z,68.34
2018-10-09T12:06:10.515Z,69.02
2018-10-09T12:08:40.974Z,68.14
2018-10-09T12:11:09.986Z,68.47
2018-10-09T12:13:39.263Z,68.04
2018-10-09T12:16:08.796Z,67.68
2018-10-09T12:18:39.270Z,67.57
2018-10-09T12:21:08.590Z,67.09
2018-10-09T12:23:37.663Z,66.96
2018-10-09T12:26:06.818Z,67.99
2018-10-09T12:28:36.892Z,67.23
2018-10-09T12:31:06.629Z,67.29
2018-10-09T12:33:36.450Z,68.12
2018-10-09T12:36:06.524Z,67.47
2018-10-09T12:38:36.387Z,67.57
2018-10-09T12:41:05.458Z,67.39
2018-10-09T12:43:34.528Z,67.51
2018-10-09T12:46:04.553Z,67.64
2018-10-09T12:48:34.204Z,67.07
2018-10-09T12:51:03.038Z,66.87
2018-10-09T12:53:32.879Z,66.59
2018-10-09T12:56:01.785Z,67.28
2018-10-09T12:58:31.706Z,66.54
2018-10-09T13:01:01.220Z,66.56
2018-10-09T13:03:30.114Z,66.58
2018-10-09T13:05:58.993Z,66.73
2018-10-09T13:08:27.954Z,66.72
2018-10-09T13:10:57.142Z,66.03
2018-10-09T13:13:26.447Z,65.85
2018-10-09T13:15:56.339Z,66.26
2018-10-09T13:18:25.883Z,66.40
2018-10-09T13:20:54.892Z,66.12
2018-10-09T13:23:24.167Z,64.88
2018-10-09T13:25:53.282Z,65.19
2018-10-09T13:28:22.841Z,65.23
2018-10-09T13:30:51.852Z,65.68
2018-10-09T13:33:21.411Z,65.81
2018-10-09T13:35:50.309Z,66.45
2018-10-09T13:38:19.666Z,66.21
2018-10-09T13:40:48.591Z,66.56
2018-10-09T13:43:17.877Z,66.81
2018-10-09T13:45:47.324Z,66.24
2018-10-09T13:48:16.719Z,66.52
2018-10-09T13:50:45.710Z,66.60
2018-10-09T13:53:15.793Z,66.42
2018-10-09T13:55:44.697Z,66.24
2018-10-09T13:58:13.713Z,66.53
2018-10-09T14:00:43.132Z,66.22
2018-10-09T14:03:12.354Z,65.70
2018-10-09T14:05:41.336Z,65.94
2018-10-09T14:08:10.539Z,66.40
2018-10-09T14:10:39.737Z,66.37
2018-10-09T14:13:09.391Z,65.29
2018-10-09T14:15:39.030Z,65.16
2018-10-09T14:18:08.679Z,65.74
2018-10-09T14:20:38.055Z,65.95
2018-10-09T14:23:08.149Z,65.76
2018-10-09T14:25:39.275Z,65.58
2018-10-09T14:28:08.831Z,65.34
2018-10-09T14:30:38.520Z,66.05
2018-10-09T14:33:08.265Z,66.65
2018-10-09T14:35:38.776Z,66.05
2018-10-09T14:41:25.044Z,66.32
2018-10-09T14:43:54.114Z,65.42
2018-10-09T14:46:23.639Z,65.62
2018-10-09T14:48:53.305Z,65.67
2018-10-09T14:51:23.027Z,66.53
2018-10-09T14:53:53.350Z,66.62
2018-10-09T14:59:12.422Z,66.59
2018-10-09T15:01:42.234Z,66.58
2018-10-09T15:04:11.393Z,66.32
2018-10-09T15:06:41.142Z,66.25
2018-10-09T15:09:12.243Z,67.24
2018-10-09T15:11:41.483Z,66.99
2018-10-09T15:14:11.429Z,67.13
2018-10-09T15:16:40.787Z,67.25
2018-10-09T15:19:11.126Z,67.05
2018-10-09T15:21:41.027Z,67.29
2018-10-09T15:26:55.042Z,67.62
2018-10-09T15:29:24.149Z,67.25
2018-10-09T15:31:54.209Z,66.78
2018-10-09T15:34:24.917Z,67.24
2018-10-09T15:36:54.561Z,67.26
2018-10-09T15:39:23.608Z,67.46
2018-10-09T15:41:52.492Z,68.20
2018-10-09T15:44:21.501Z,68.59
2018-10-09T15:46:51.138Z,68.08
2018-10-09T15:49:22.651Z,68.86
2018-10-09T15:51:52.643Z,68.82
2018-10-09T15:54:23.348Z,68.18
2018-10-09T15:56:52.384Z,69.20
2018-10-09T15:59:22.021Z,69.04
2018-10-09T16:01:51.794Z,69.16
2018-10-09T16:04:20.849Z,69.29
2018-10-09T16:06:49.702Z,69.33
2018-10-09T16:09:18.983Z,69.03
2018-10-09T16:11:47.944Z,69.45
2018-10-09T16:14:17.349Z,70.10
2018-10-09T16:16:46.639Z,70.24
2018-10-09T16:19:17.018Z,69.83
2018-10-09T16:21:46.034Z,70.18
2018-10-09T16:24:15.109Z,70.14
2018-10-09T16:26:44.438Z,70.04
2018-10-09T16:29:14.206Z,70.46
2018-10-09T16:31:43.483Z,70.38
2018-10-09T16:34:13.290Z,70.17
2018-10-09T16:36:43.995Z,70.83
2018-10-09T16:39:14.093Z,70.54
2018-10-09T16:41:44.009Z,71.04
2018-10-09T16:44:13.587Z,70.74
2018-10-09T16:46:43.709Z,71.01
2018-10-09T16:49:13.296Z,70.44
2018-10-09T16:51:42.283Z,71.36
2018-10-09T16:54:12.430Z,71.13
2018-10-09T16:56:41.567Z,71.53
2018-10-09T16:59:12.269Z,70.61
2018-10-09T17:01:41.755Z,71.91
2018-10-09T17:04:11.965Z,71.05
2018-10-09T17:06:41.277Z,72.05
2018-10-09T17:09:11.897Z,72.14
2018-10-09T17:11:41.881Z,71.22
2018-10-09T17:14:11.768Z,71.19
2018-10-09T17:16:41.711Z,71.94
2018-10-09T17:19:13.413Z,71.91
2018-10-09T17:21:42.929Z,71.23
2018-10-09T17:24:11.898Z,71.59
2018-10-09T17:26:40.946Z,70.90
2018-10-09T17:29:10.012Z,71.27
2018-10-09T17:31:39.145Z,71.48
2018-10-09T17:34:09.114Z,70.66
2018-10-09T17:36:39.068Z,71.44
2018-10-09T17:39:10.110Z,71.58
2018-10-09T17:41:40.411Z,71.63
2018-10-09T17:44:10.025Z,71.19
2018-10-09T17:46:40.348Z,71.12
2018-10-09T17:49:10.155Z,70.95
2018-10-09T17:51:39.292Z,71.58
2018-10-09T17:54:09.233Z,70.80
2018-10-09T17:56:38.558Z,70.97
2018-10-09T17:59:08.544Z,71.11
2018-10-09T18:01:38.772Z,71.25
2018-10-09T18:04:07.962Z,71.52
2018-10-09T18:06:37.028Z,71.37
2018-10-09T18:09:10.043Z,70.99
2018-10-09T18:11:39.481Z,71.50
2018-10-09T18:14:09.496Z,71.85
2018-10-09T18:16:38.798Z,71.51
2018-10-09T18:19:10.289Z,71.05
2018-10-09T18:21:39.620Z,70.35
2018-10-09T18:24:09.920Z,70.40
2018-10-09T18:26:39.115Z,70.46
2018-10-09T18:29:08.643Z,69.46
2018-10-09T18:31:37.956Z,69.77
2018-10-09T18:34:08.022Z,69.49
2018-10-09T18:36:38.624Z,68.51
2018-10-09T18:39:12.582Z,69.38
2018-10-09T18:41:41.961Z,68.90
2018-10-09T18:44:11.514Z,68.22
2018-10-09T18:46:41.330Z,68.65
2018-10-09T18:49:11.893Z,68.88
2018-10-09T18:51:42.037Z,68.84
2018-10-09T18:54:11.813Z,68.80
2018-10-09T18:56:41.698Z,68.90
2018-10-09T18:59:11.333Z,69.11
2018-10-09T19:01:41.614Z,68.79
2018-10-09T19:04:10.721Z,68.91
2018-10-09T19:06:41.404Z,69.13
2018-10-09T19:09:11.990Z,69.40
2018-10-09T19:11:41.541Z,69.85
2018-10-09T19:14:11.212Z,69.91
2018-10-09T19:16:40.919Z,70.85
2018-10-09T19:19:10.536Z,70.60
2018-10-09T19:21:42.112Z,70.32
2018-10-09T19:24:11.445Z,70.97
2018-10-09T19:26:40.906Z,70.30
2018-10-09T19:29:10.028Z,71.04
2018-10-09T19:31:39.272Z,70.26
2018-10-09T19:34:08.918Z,70.24
2018-10-09T19:36:40.148Z,70.36
2018-10-09T19:39:11.863Z,70.58
2018-10-09T19:41:41.413Z,69.36
2018-10-09T19:44:10.966Z,69.82
2018-10-09T19:46:40.499Z,69.21
2018-10-09T19:49:10.774Z,69.35
2018-10-09T19:51:45.447Z,69.43
2018-10-09T19:54:15.272Z,69.74
2018-10-09T19:56:44.687Z,69.12
2018-10-09T19:59:14.576Z,69.39
2018-10-09T20:01:45.711Z,70.17
2018-10-09T20:04:14.796Z,69.56
2018-10-09T20:06:43.678Z,70.11
2018-10-09T20:09:14.101Z,70.60
2018-10-09T20:11:44.942Z,70.56
2018-10-09T20:14:14.660Z,70.20
2018-10-09T20:16:44.418Z,70.63
2018-10-09T20:19:14.271Z,70.45
2018-10-09T20:21:43.528Z,70.15
2018-10-09T20:24:13.449Z,70.16
2018-10-09T20:26:42.436Z,69.78
2018-10-09T20:29:11.505Z,70.35
2018-10-09T20:31:40.602Z,71.03
2018-10-09T20:34:10.308Z,70.21
2018-10-09T20:36:40.485Z,71.06
2018-10-09T20:39:09.596Z,70.76
2018-10-09T20:41:38.712Z,71.91
2018-10-09T20:44:08.668Z,71.47
2018-10-09T20:46:38.322Z,71.29
2018-10-09T20:49:07.990Z,72.07
2018-10-09T20:51:37.301Z,71.97
2018-10-09T20:54:07.319Z,71.84
2018-10-09T20:56:36.502Z,72.58
2018-10-09T20:59:06.552Z,72.65
2018-10-09T21:01:36.358Z,72.32
2018-10-09T21:04:05.357Z,71.54
2018-10-09T21:06:34.497Z,71.84
2018-10-09T21:09:05.531Z,71.88
2018-10-09T21:11:34.592Z,71.58
2018-10-09T21:14:03.691Z,70.54
2018-10-09T21:16:33.630Z,70.54
2018-10-09T21:19:03.399Z,69.89
2018-10-09T21:21:32.920Z,69.11
2018-10-09T21:24:02.420Z,69.32
2018-10-09T21:26:32.382Z,69.48
2018-10-09T21:29:01.383Z,69.35
2018-10-09T21:31:30.533Z,69.50
2018-10-09T21:34:00.690Z,70.36
2018-10-09T21:36:29.697Z,70.97
2018-10-09T21:38:59.268Z,70.67
2018-10-09T21:41:28.266Z,70.52
2018-10-09T21:43:58.479Z,70.64
2018-10-09T21:46:28.529Z,71.80
2018-10-09T21:48:58.077Z,71.37
2018-10-09T21:51:26.992Z,72.37
2018-10-09T21:56:57.378Z,72.65
2018-10-09T21:59:32.813Z,73.00
2018-10-09T22:02:27.825Z,73.14
2018-10-09T22:07:50.173Z,72.68
2018-10-09T22:10:29.660Z,72.56
2018-10-09T22:22:03.631Z,72.75
2018-10-09T22:24:56.983Z,73.18
2018-10-09T22:30:43.031Z,73.11
2018-10-09T22:33:18.676Z,73.24
2018-10-09T22:35:57.844Z,72.87
2018-10-09T22:38:30.915Z,72.57
2018-10-09T22:41:01.262Z,72.33
2018-10-09T22:43:36.691Z,72.14
2018-10-09T22:46:17.571Z,72.79
2018-10-09T22:48:50.901Z,72.71
2018-10-09T22:51:31.847Z,72.32
2018-10-09T22:54:27.831Z,72.87
2018-10-09T22:57:02.681Z,72.82
2018-10-09T22:59:55.135Z,72.67
2018-10-09T23:02:32.317Z,72.70
2018-10-09T23:05:27.768Z,73.38
2018-10-09T23:08:17.121Z,72.52
2018-10-09T23:10:54.589Z,72.82
2018-10-09T23:13:41.065Z,72.83
2018-10-09T23:16:26.993Z,72.31
2018-10-09T23:19:00.910Z,72.43
2018-10-09T23:24:30.385Z,73.13
2018-10-09T23:27:16.781Z,72.00
2018-10-09T23:33:00.437Z,71.89
2018-10-09T23:35:41.414Z,72.30
2018-10-09T23:38:37.427Z,72.35
2018-10-09T23:44:08.618Z,72.45
2018-10-09T23:46:41.589Z,71.70
2018-10-09T23:49:11.452Z,71.75
2018-10-09T23:51:40.675Z,72.10
2018-10-09T23:54:10.804Z,71.45
2018-10-09T23:56:44.665Z,71.97
2018-10-09T23:59:15.151Z,71.72
